Time;durP1;ratioP1;P1;durP2;ratioP2;P2;SDS_P1;SDS_P2;PMS_P1;PMS_P2;Temp;Humidity;BMP_temperature;BMP_pressure;BME280_temperature;BME280_humidity;BME280_pressure;Samples;Min_cycle;Max_cycle;Signal;HPM_P1;HPM_P2
2021/08/13 00:02:03;;;;;;;11.75;9.00;;;20.50;99.90;;;;;;4935276;29;20058;-70
2021/08/13 00:04:30;;;;;;;12.95;8.32;;;20.50;99.90;;;;;;4919449;28;20106;-70
2021/08/13 00:06:57;;;;;;;11.68;8.60;;;20.40;99.90;;;;;;4939597;29;20126;-70
2021/08/13 00:09:25;;;;;;;11.80;8.27;;;20.40;99.90;;;;;;4952143;28;20057;-70
2021/08/13 00:11:54;;;;;;;11.77;8.45;;;20.40;99.90;;;;;;4933895;28;20089;-70
2021/08/13 00:14:22;;;;;;;15.63;8.90;;;20.40;99.90;;;;;;4934729;29;20383;-70
2021/08/13 00:16:49;;;;;;;11.95;9.13;;;20.40;99.90;;;;;;4952334;28;20071;-70
2021/08/13 00:19:17;;;;;;;15.32;9.45;;;20.40;99.90;;;;;;4952140;28;20510;-70
2021/08/13 00:21:44;;;;;;;12.07;8.65;;;20.30;99.90;;;;;;4934606;29;20050;-70
2021/08/13 00:24:11;;;;;;;14.15;9.18;;;20.30;99.90;;;;;;4951785;28;20045;-70
2021/08/13 00:26:38;;;;;;;12.23;8.38;;;20.30;99.90;;;;;;4932182;28;20079;-70
2021/08/13 00:29:06;;;;;;;12.13;9.02;;;20.20;99.90;;;;;;4934737;29;20055;-70
2021/08/13 00:31:33;;;;;;;11.60;7.82;;;20.20;99.90;;;;;;4932443;28;20051;-70
2021/08/13 00:34:02;;;;;;;12.55;8.60;;;20.20;99.90;;;;;;4935202;29;20062;-70
2021/08/13 00:36:30;;;;;;;12.40;9.02;;;20.10;99.90;;;;;;4918456;28;20082;-70
2021/08/13 00:39:02;;;;;;;12.05;8.55;;;20.10;99.90;;;;;;4918840;29;20054;-70
2021/08/13 00:41:31;;;;;;;14.75;9.48;;;20.10;99.90;;;;;;4937909;28;20047;-70
2021/08/13 00:44:00;;;;;;;12.75;9.55;;;20.10;99.90;;;;;;4934197;29;20047;-70
2021/08/13 00:46:27;;;;;;;11.48;8.07;;;20.10;99.90;;;;;;4935516;29;20036;-70
2021/08/13 00:49:21;;;;;;;12.18;9.23;;;20.00;99.90;;;;;;4935514;28;20419;-70
2021/08/13 00:51:54;;;;;;;14.15;9.50;;;20.00;99.90;;;;;;4953964;28;20046;-70
2021/08/13 00:54:23;;;;;;;11.55;8.63;;;20.00;99.90;;;;;;4934486;28;20118;-70
2021/08/13 00:56:52;;;;;;;12.90;9.27;;;20.00;99.90;;;;;;4959113;28;20051;-70
2021/08/13 00:59:47;;;;;;;12.55;8.63;;;20.00;99.90;;;;;;4923504;28;20066;-70
2021/08/13 01:02:31;;;;;;;13.20;8.73;;;20.00;99.90;;;;;;4947141;28;20130;-70
2021/08/13 01:05:06;;;;;;;12.95;8.32;;;20.00;99.90;;;;;;4947843;28;20075;-70
2021/08/13 01:07:35;;;;;;;13.55;8.35;;;20.00;99.90;;;;;;4952712;28;20063;-70
2021/08/13 01:10:05;;;;;;;12.52;8.82;;;19.90;99.90;;;;;;4952319;28;20047;-70
2021/08/13 01:12:53;;;;;;;13.50;8.95;;;19.90;99.90;;;;;;4945822;28;20050;-70
2021/08/13 01:15:25;;;;;;;14.98;8.98;;;20.00;99.90;;;;;;4938629;29;20047;-70
2021/08/13 01:18:25;;;;;;;16.77;9.05;;;20.00;99.90;;;;;;4952076;28;20051;-70
2021/08/13 01:21:07;;;;;;;11.00;8.45;;;20.10;99.90;;;;;;4945938;28;20118;-69
2021/08/13 01:23:47;;;;;;;11.68;8.50;;;20.20;99.90;;;;;;4952830;28;20047;-69
2021/08/13 01:26:18;;;;;;;11.02;8.13;;;20.20;99.90;;;;;;4938004;29;20580;-69
2021/08/13 01:29:03;;;;;;;11.93;8.63;;;20.20;99.90;;;;;;4953248;28;20524;-69
2021/08/13 01:31:43;;;;;;;12.30;8.77;;;20.30;99.90;;;;;;4937970;29;20051;-69
2021/08/13 01:34:12;;;;;;;12.70;8.32;;;20.30;99.90;;;;;;4952600;28;20387;-69
2021/08/13 01:36:41;;;;;;;10.82;8.25;;;20.30;99.90;;;;;;4937447;28;20490;-69
2021/08/13 01:39:09;;;;;;;11.15;8.07;;;20.20;99.90;;;;;;4933363;29;20360;-69
2021/08/13 01:41:39;;;;;;;12.50;8.93;;;20.30;99.90;;;;;;4969815;28;20057;-69
2021/08/13 01:44:11;;;;;;;10.32;8.27;;;20.20;99.90;;;;;;4920548;28;20077;-69
2021/08/13 01:46:41;;;;;;;12.88;8.80;;;20.30;99.90;;;;;;4953701;28;20075;-69
2021/08/13 01:49:11;;;;;;;13.63;8.70;;;20.20;99.90;;;;;;4951789;28;20042;-69
2021/08/13 01:51:38;;;;;;;14.25;8.23;;;20.20;99.90;;;;;;4951102;28;20047;-69
2021/08/13 01:54:07;;;;;;;12.07;8.25;;;20.30;99.90;;;;;;4957898;28;20051;-69
2021/08/13 01:56:40;;;;;;;12.95;8.60;;;20.20;99.90;;;;;;4934589;28;20524;-69
2021/08/13 01:59:08;;;;;;;11.68;8.57;;;20.20;99.90;;;;;;4918072;29;20040;-69
2021/08/13 02:01:37;;;;;;;13.40;8.35;;;20.20;99.90;;;;;;4950165;28;20043;-69
2021/08/13 02:04:05;;;;;;;13.85;8.68;;;20.30;99.90;;;;;;4935608;28;20375;-69
2021/08/13 02:06:34;;;;;;;13.00;8.10;;;20.20;99.90;;;;;;4924237;29;20581;-69
2021/08/13 02:09:11;;;;;;;12.13;8.23;;;20.20;99.90;;;;;;4936956;29;20043;-69
2021/08/13 02:11:45;;;;;;;11.45;8.45;;;20.10;99.90;;;;;;4950141;28;20143;-69
2021/08/13 02:14:17;;;;;;;11.27;8.15;;;20.10;99.90;;;;;;4947063;28;20421;-68
2021/08/13 02:16:51;;;;;;;15.88;8.93;;;20.10;99.90;;;;;;4958044;28;20165;-68
2021/08/13 02:19:35;;;;;;;13.23;8.15;;;20.10;99.90;;;;;;4953228;28;20126;-68
2021/08/13 02:22:05;;;;;;;11.70;8.30;;;20.00;99.90;;;;;;4952321;28;20522;-68
2021/08/13 02:24:32;;;;;;;13.27;8.10;;;20.00;99.90;;;;;;4937045;29;20043;-70
2021/08/13 02:27:14;;;;;;;11.20;7.80;;;19.90;99.90;;;;;;4952371;28;20035;-68
2021/08/13 02:29:43;;;;;;;11.48;8.55;;;19.90;99.90;;;;;;4935636;29;20126;-69
2021/08/13 02:32:12;;;;;;;11.93;8.43;;;19.80;99.90;;;;;;4935144;28;20106;-69
2021/08/13 02:34:40;;;;;;;9.93;7.85;;;19.80;99.90;;;;;;4961802;28;20046;-69
2021/08/13 02:37:20;;;;;;;16.98;8.48;;;19.70;99.90;;;;;;4951993;28;20070;-69
2021/08/13 02:39:55;;;;;;;13.32;8.88;;;19.70;99.90;;;;;;4948066;28;20069;-69
2021/08/13 02:42:46;;;;;;;10.93;8.55;;;19.70;99.90;;;;;;4930369;28;20047;-69
2021/08/13 02:45:16;;;;;;;12.43;9.23;;;19.70;99.90;;;;;;4950995;28;20039;-69
2021/08/13 02:47:46;;;;;;;16.08;9.23;;;19.70;99.90;;;;;;4953272;28;20067;-68
2021/08/13 02:50:16;;;;;;;13.15;8.95;;;19.70;99.90;;;;;;4955371;28;20035;-68
2021/08/13 02:52:51;;;;;;;13.02;9.07;;;19.70;99.90;;;;;;4949366;28;20723;-69
2021/08/13 02:55:25;;;;;;;15.65;9.90;;;19.70;99.90;;;;;;4948839;28;20043;-70
2021/08/13 02:58:00;;;;;;;11.05;8.65;;;19.70;99.90;;;;;;4918701;29;20078;-69
2021/08/13 03:00:29;;;;;;;16.70;10.07;;;19.60;99.90;;;;;;4936243;29;20035;-69
2021/08/13 03:02:58;;;;;;;12.95;9.05;;;19.60;99.90;;;;;;4934132;28;20047;-69
2021/08/13 03:05:30;;;;;;;11.93;8.82;;;19.60;99.90;;;;;;4936640;28;20043;-69
2021/08/13 03:08:02;;;;;;;11.25;8.75;;;19.60;99.90;;;;;;4937444;28;20046;-69
2021/08/13 03:10:31;;;;;;;11.70;8.98;;;19.50;99.90;;;;;;4941652;29;20043;-70
2021/08/13 03:12:59;;;;;;;12.55;9.38;;;19.50;99.90;;;;;;4930269;28;20125;-70
2021/08/13 03:15:29;;;;;;;16.67;9.88;;;19.40;99.90;;;;;;4936612;29;20062;-69
2021/08/13 03:17:58;;;;;;;12.15;9.23;;;19.40;99.90;;;;;;4935817;28;20046;-69
2021/08/13 03:20:26;;;;;;;16.35;9.50;;;19.40;99.90;;;;;;4936335;29;20046;-70
2021/08/13 03:23:07;;;;;;;13.57;9.60;;;19.30;99.90;;;;;;4938353;28;20105;-69
2021/08/13 03:25:37;;;;;;;15.27;10.15;;;19.30;99.90;;;;;;4952951;28;20541;-69
2021/08/13 03:28:09;;;;;;;13.07;9.48;;;19.30;99.90;;;;;;4919215;28;20050;-69
2021/08/13 03:30:42;;;;;;;15.32;9.55;;;19.20;99.90;;;;;;4920310;29;20043;-69
2021/08/13 03:33:14;;;;;;;17.65;10.23;;;19.20;99.90;;;;;;4928860;28;20043;-69
2021/08/13 03:35:43;;;;;;;15.98;10.23;;;19.20;99.90;;;;;;4936950;28;20036;-69
2021/08/13 03:38:12;;;;;;;14.10;10.00;;;19.20;99.90;;;;;;4949419;28;20035;-69
2021/08/13 03:40:41;;;;;;;16.20;10.30;;;19.20;99.90;;;;;;4957801;28;20046;-69
2021/08/13 03:43:08;;;;;;;14.10;10.23;;;19.10;99.90;;;;;;4950694;28;20040;-69
2021/08/13 03:45:37;;;;;;;13.82;9.63;;;19.10;99.90;;;;;;4935741;29;20039;-70
2021/08/13 03:48:06;;;;;;;14.52;9.88;;;19.00;99.90;;;;;;4951657;28;20047;-70
2021/08/13 03:50:34;;;;;;;13.38;10.02;;;19.00;99.90;;;;;;4933747;29;20118;-70
2021/08/13 03:53:02;;;;;;;13.05;9.60;;;19.00;99.90;;;;;;4951275;28;20083;-70
2021/08/13 03:55:30;;;;;;;12.75;9.60;;;19.00;99.90;;;;;;4939971;29;20039;-69
2021/08/13 03:57:57;;;;;;;15.35;9.68;;;19.00;99.90;;;;;;4935189;29;20402;-69
2021/08/13 04:00:25;;;;;;;15.82;10.73;;;18.90;99.90;;;;;;4952401;29;20491;-69
2021/08/13 04:02:52;;;;;;;14.93;9.60;;;18.90;99.90;;;;;;4934162;29;20498;-70
2021/08/13 04:05:23;;;;;;;12.85;9.48;;;19.00;99.90;;;;;;4959056;28;20460;-70
2021/08/13 04:07:52;;;;;;;15.02;9.75;;;18.90;99.90;;;;;;4955304;28;20036;-70
2021/08/13 04:10:21;;;;;;;13.80;10.15;;;19.00;99.90;;;;;;4959037;28;20074;-70
2021/08/13 04:12:48;;;;;;;13.93;9.75;;;19.00;99.90;;;;;;4967139;28;20042;-69
2021/08/13 04:15:21;;;;;;;12.43;9.57;;;18.90;99.90;;;;;;4931897;29;20412;-70
2021/08/13 04:17:51;;;;;;;16.13;10.57;;;19.00;99.90;;;;;;4950367;28;20047;-70
2021/08/13 04:20:21;;;;;;;12.27;9.57;;;19.00;99.90;;;;;;4952292;28;20123;-68
2021/08/13 04:22:53;;;;;;;14.20;9.38;;;19.00;99.90;;;;;;4932434;29;20502;-68
2021/08/13 04:25:21;;;;;;;14.05;10.43;;;19.00;99.90;;;;;;4940511;28;20090;-68
2021/08/13 04:27:50;;;;;;;12.68;9.13;;;19.00;99.90;;;;;;4940833;28;20441;-68
2021/08/13 04:30:18;;;;;;;16.98;9.25;;;19.10;99.90;;;;;;4953895;28;20043;-68
2021/08/13 04:32:46;;;;;;;16.20;10.98;;;19.10;99.90;;;;;;4934862;28;20815;-68
2021/08/13 04:35:14;;;;;;;13.05;9.63;;;19.20;99.90;;;;;;4922852;29;20051;-68
2021/08/13 04:37:41;;;;;;;16.33;10.90;;;19.20;99.90;;;;;;4938888;28;20210;-68
2021/08/13 04:40:09;;;;;;;15.90;10.02;;;19.30;99.90;;;;;;4957923;28;20485;-69
2021/08/13 04:42:45;;;;;;;11.45;8.73;;;19.30;99.90;;;;;;4938564;28;20054;-69
2021/08/13 04:45:13;;;;;;;14.52;9.50;;;19.40;99.90;;;;;;4955381;28;20035;-69
2021/08/13 04:47:42;;;;;;;13.20;9.45;;;19.50;99.90;;;;;;4938783;29;20046;-69
2021/08/13 04:50:09;;;;;;;15.15;10.32;;;19.50;99.90;;;;;;4952719;28;20126;-69
2021/08/13 04:52:45;;;;;;;14.15;9.48;;;19.60;99.90;;;;;;4938389;28;20592;-69
2021/08/13 04:55:20;;;;;;;14.52;10.48;;;19.60;99.90;;;;;;4956049;28;20094;-69
2021/08/13 04:57:49;;;;;;;15.05;9.90;;;19.60;99.90;;;;;;4937878;29;20045;-69
2021/08/13 05:00:18;;;;;;;13.93;9.80;;;19.60;99.90;;;;;;4922929;29;20051;-70
2021/08/13 05:02:47;;;;;;;13.80;10.23;;;19.60;99.90;;;;;;4938187;28;20417;-70
2021/08/13 05:05:18;;;;;;;13.60;9.20;;;19.70;99.90;;;;;;4939009;29;20131;-69
2021/08/13 05:07:45;;;;;;;16.13;10.77;;;19.80;99.90;;;;;;4939687;29;20040;-69
2021/08/13 05:10:16;;;;;;;16.95;10.82;;;19.90;99.90;;;;;;4936996;28;20040;-70
2021/08/13 05:12:44;;;;;;;13.45;10.43;;;20.00;99.90;;;;;;4938618;29;20075;-70
2021/08/13 05:15:13;;;;;;;16.25;11.07;;;20.10;99.90;;;;;;4945516;28;20099;-70
2021/08/13 05:17:43;;;;;;;14.48;10.63;;;20.20;99.90;;;;;;4937638;29;20043;-70
2021/08/13 05:20:12;;;;;;;13.65;10.63;;;20.10;99.90;;;;;;4943620;28;20087;-70
2021/08/13 05:22:44;;;;;;;14.38;11.20;;;20.20;99.90;;;;;;4946324;28;20039;-70
2021/08/13 05:25:14;;;;;;;16.17;12.55;;;20.40;99.90;;;;;;4954092;28;20031;-70
2021/08/13 05:27:42;;;;;;;18.40;13.43;;;20.40;99.90;;;;;;4928827;29;20142;-70
2021/08/13 05:30:13;;;;;;;15.48;11.48;;;20.50;99.90;;;;;;4938231;28;20066;-71
2021/08/13 05:32:45;;;;;;;17.25;12.35;;;20.60;99.90;;;;;;4937788;29;20071;-71
2021/08/13 05:35:14;;;;;;;19.08;12.70;;;20.80;99.90;;;;;;4953094;28;20039;-70
2021/08/13 05:37:44;;;;;;;18.02;12.82;;;20.90;99.90;;;;;;4920974;29;20055;-71
2021/08/13 05:40:12;;;;;;;15.77;11.68;;;21.00;99.90;;;;;;4942244;28;20066;-70
2021/08/13 05:42:39;;;;;;;18.65;11.75;;;21.10;99.90;;;;;;4922040;29;20090;-70
2021/08/13 05:45:10;;;;;;;16.15;11.63;;;21.20;99.90;;;;;;4936734;29;20035;-69
2021/08/13 05:47:39;;;;;;;16.25;11.13;;;21.30;99.90;;;;;;4935827;29;20046;-70
2021/08/13 05:50:10;;;;;;;15.93;11.02;;;21.30;99.90;;;;;;4935654;29;20039;-70
2021/08/13 05:52:39;;;;;;;17.15;11.32;;;21.30;99.90;;;;;;4938016;28;20070;-70
2021/08/13 05:55:07;;;;;;;15.32;11.38;;;21.30;99.90;;;;;;4937746;29;20047;-70
2021/08/13 05:57:35;;;;;;;15.38;10.73;;;21.20;99.90;;;;;;4936847;28;20082;-70
2021/08/13 06:00:04;;;;;;;15.68;11.27;;;21.20;99.90;;;;;;4938032;29;20118;-70
2021/08/13 06:02:55;;;;;;;16.70;11.38;;;21.30;99.90;;;;;;4938544;28;20130;-70
2021/08/13 06:05:24;;;;;;;15.98;10.82;;;21.30;99.90;;;;;;4937637;28;20469;-70
2021/08/13 06:07:54;;;;;;;13.00;10.77;;;21.30;99.90;;;;;;4936321;28;20039;-70
2021/08/13 06:10:22;;;;;;;14.52;11.23;;;21.30;99.90;;;;;;4937780;29;20094;-70
2021/08/13 06:12:49;;;;;;;13.57;10.63;;;21.40;99.90;;;;;;4937220;28;20047;-70
2021/08/13 06:15:18;;;;;;;15.60;11.45;;;21.40;99.90;;;;;;4937744;29;20047;-70
2021/08/13 06:17:46;;;;;;;14.68;11.35;;;21.40;99.90;;;;;;4949506;28;20106;-70
2021/08/13 06:20:18;;;;;;;23.92;13.88;;;21.40;99.90;;;;;;4921666;29;20039;-68
2021/08/13 06:23:02;;;;;;;17.15;13.80;;;21.40;99.90;;;;;;4936510;28;20043;-70
2021/08/13 06:25:30;;;;;;;23.10;14.73;;;21.30;99.90;;;;;;4937971;28;20554;-70
2021/08/13 06:27:58;;;;;;;21.63;13.80;;;21.30;99.90;;;;;;4946344;28;20043;-70
2021/08/13 06:30:25;;;;;;;20.42;13.50;;;21.20;99.90;;;;;;4939743;28;20486;-70
2021/08/13 06:32:53;;;;;;;20.17;14.65;;;21.20;99.90;;;;;;4933436;29;20507;-68
2021/08/13 06:35:23;;;;;;;20.30;14.05;;;21.00;99.90;;;;;;4945722;29;20066;-68
2021/08/13 06:37:55;;;;;;;23.08;15.55;;;20.90;99.90;;;;;;4935674;29;20078;-68
2021/08/13 06:40:24;;;;;;;21.80;15.50;;;20.80;99.90;;;;;;4957842;28;20111;-69
2021/08/13 06:42:52;;;;;;;20.30;13.35;;;20.70;99.90;;;;;;4952554;29;20035;-68
2021/08/13 06:45:23;;;;;;;23.75;15.50;;;20.50;99.90;;;;;;4938209;29;20039;-70
2021/08/13 06:47:51;;;;;;;21.40;14.20;;;20.40;99.90;;;;;;4919452;29;20047;-69
2021/08/13 06:50:21;;;;;;;24.77;15.80;;;20.20;99.90;;;;;;4938574;29;20049;-69
2021/08/13 06:52:51;;;;;;;26.65;14.90;;;20.10;99.90;;;;;;4935372;29;20043;-69
2021/08/13 06:55:19;;;;;;;25.05;15.93;;;20.00;99.90;;;;;;4936846;29;20051;-69
2021/08/13 06:57:52;;;;;;;25.23;17.15;;;19.90;99.90;;;;;;4935298;28;20050;-69
2021/08/13 07:00:22;;;;;;;30.92;18.10;;;19.70;99.90;;;;;;4945411;29;20047;-69
2021/08/13 07:02:49;;;;;;;26.67;17.10;;;19.70;99.90;;;;;;4957092;28;20047;-69
2021/08/13 07:05:21;;;;;;;24.52;17.30;;;19.70;99.90;;;;;;4937280;29;20054;-69
2021/08/13 07:07:48;;;;;;;28.02;17.00;;;19.80;99.90;;;;;;4948162;29;20471;-69
2021/08/13 07:10:16;;;;;;;26.52;17.70;;;19.90;99.90;;;;;;4939955;28;20049;-68
2021/08/13 07:12:44;;;;;;;23.27;14.98;;;20.00;99.90;;;;;;4958537;28;20151;-68
2021/08/13 07:15:11;;;;;;;21.75;15.43;;;20.10;99.90;;;;;;4937853;28;20135;-69
2021/08/13 07:17:42;;;;;;;21.00;15.02;;;20.20;99.90;;;;;;4926883;29;20138;-68
2021/08/13 07:20:19;;;;;;;22.90;14.27;;;20.30;99.90;;;;;;4960120;28;20043;-69
2021/08/13 07:22:49;;;;;;;23.48;14.75;;;20.50;99.90;;;;;;4935265;29;20032;-68
2021/08/13 07:25:18;;;;;;;22.63;17.20;;;20.50;99.90;;;;;;4952200;29;20509;-68
2021/08/13 07:27:45;;;;;;;26.98;15.98;;;20.60;99.90;;;;;;4935757;29;20031;-68
2021/08/13 07:30:14;;;;;;;38.47;16.33;;;20.70;99.90;;;;;;4951602;29;20134;-68
2021/08/13 07:32:44;;;;;;;27.23;14.40;;;20.90;99.90;;;;;;4929753;28;20494;-68
2021/08/13 07:35:13;;;;;;;20.73;14.60;;;21.00;99.90;;;;;;4950918;28;20034;-68
2021/08/13 07:37:48;;;;;;;18.65;13.77;;;21.20;99.90;;;;;;4930548;28;20116;-68
2021/08/13 07:40:17;;;;;;;20.48;14.77;;;21.40;99.90;;;;;;4929937;29;20048;-68
2021/08/13 07:42:46;;;;;;;22.35;13.98;;;21.60;99.90;;;;;;4958124;28;20097;-69
2021/08/13 07:45:15;;;;;;;22.20;14.85;;;21.80;99.90;;;;;;4950290;28;20086;-68
2021/08/13 07:47:43;;;;;;;26.92;16.00;;;21.90;99.90;;;;;;4935520;29;20054;-68
2021/08/13 07:50:12;;;;;;;27.38;17.88;;;22.00;99.90;;;;;;4931472;28;20127;-69
2021/08/13 07:52:42;;;;;;;27.42;18.80;;;22.20;99.90;;;;;;4950535;28;20126;-69
2021/08/13 07:55:12;;;;;;;19.80;16.08;;;22.30;99.90;;;;;;4961370;28;20126;-68
2021/08/13 07:57:39;;;;;;;20.90;16.80;;;22.30;99.90;;;;;;4949635;28;20559;-68
2021/08/13 08:00:11;;;;;;;21.95;18.38;;;22.30;99.90;;;;;;4946442;28;20047;-68
2021/08/13 08:02:53;;;;;;;22.77;16.50;;;22.30;99.90;;;;;;4944087;28;20044;-69
2021/08/13 08:05:20;;;;;;;23.30;15.10;;;22.30;99.90;;;;;;4947208;28;20482;-69
2021/08/13 08:07:47;;;;;;;21.63;17.55;;;22.30;99.90;;;;;;4945449;28;20098;-68
2021/08/13 08:10:15;;;;;;;28.00;17.75;;;22.30;99.90;;;;;;4937865;29;20059;-68
2021/08/13 08:12:43;;;;;;;25.00;19.17;;;22.40;99.90;;;;;;4952581;28;20043;-68
2021/08/13 08:15:10;;;;;;;31.60;19.88;;;22.40;99.90;;;;;;4958435;28;20098;-68
2021/08/13 08:17:38;;;;;;;22.38;17.17;;;22.50;99.90;;;;;;4956006;28;20081;-69
2021/08/13 08:20:09;;;;;;;24.25;17.52;;;22.60;99.90;;;;;;4964018;28;20039;-68
2021/08/13 08:22:37;;;;;;;24.30;17.63;;;22.80;99.90;;;;;;4938604;29;20149;-68
2021/08/13 08:25:05;;;;;;;29.00;19.98;;;22.90;99.90;;;;;;4955440;28;20101;-68
2021/08/13 08:27:32;;;;;;;26.80;19.02;;;23.00;99.90;;;;;;4955131;28;20362;-69
2021/08/13 08:30:00;;;;;;;30.00;21.45;;;23.00;99.90;;;;;;4951666;28;20070;-68
2021/08/13 08:32:27;;;;;;;31.90;21.08;;;22.90;99.90;;;;;;4951991;28;20043;-67
2021/08/13 08:34:54;;;;;;;26.15;19.83;;;23.00;99.90;;;;;;4959054;28;20046;-68
2021/08/13 08:37:21;;;;;;;26.02;19.38;;;23.20;99.90;;;;;;4949281;29;20051;-68
2021/08/13 08:39:49;;;;;;;25.15;18.70;;;23.30;99.90;;;;;;4941721;28;20039;-68
2021/08/13 08:42:18;;;;;;;26.35;18.45;;;23.50;99.90;;;;;;4972095;28;20043;-68
2021/08/13 08:44:46;;;;;;;27.42;19.00;;;23.70;99.90;;;;;;4952799;28;20443;-68
2021/08/13 08:47:16;;;;;;;23.88;17.35;;;23.90;99.90;;;;;;4953713;28;20129;-68
2021/08/13 08:49:44;;;;;;;24.40;16.77;;;24.10;99.90;;;;;;4951635;28;20042;-68
2021/08/13 08:52:12;;;;;;;24.00;17.25;;;24.30;99.90;;;;;;4962908;28;20426;-68
2021/08/13 08:54:41;;;;;;;24.70;17.67;;;24.50;99.90;;;;;;4932017;29;20094;-67
2021/08/13 08:57:09;;;;;;;22.88;15.52;;;24.50;99.90;;;;;;4944684;28;20078;-68
2021/08/13 08:59:41;;;;;;;23.95;18.65;;;24.80;99.90;;;;;;4955258;28;20054;-68
2021/08/13 09:02:09;;;;;;;19.40;15.82;;;25.00;99.90;;;;;;4953047;28;20066;-69
2021/08/13 09:04:37;;;;;;;21.65;15.10;;;25.30;99.90;;;;;;4957376;28;20035;-68
2021/08/13 09:07:06;;;;;;;23.52;16.15;;;25.60;99.90;;;;;;4964080;28;20065;-68
2021/08/13 09:09:33;;;;;;;27.02;16.90;;;25.90;99.90;;;;;;4953555;28;20039;-68
2021/08/13 09:12:02;;;;;;;23.67;17.00;;;26.00;99.90;;;;;;4937977;29;20121;-70
2021/08/13 09:14:41;;;;;;;25.35;16.42;;;26.30;99.90;;;;;;4954053;28;20090;-69
2021/08/13 09:17:09;;;;;;;25.75;15.45;;;26.60;99.90;;;;;;4954525;28;20119;-69
2021/08/13 09:19:46;;;;;;;24.13;15.75;;;26.60;99.90;;;;;;4953984;28;20075;-69
2021/08/13 09:22:16;;;;;;;20.48;15.02;;;26.50;99.90;;;;;;4954903;28;20478;-69
2021/08/13 09:24:49;;;;;;;18.80;14.68;;;26.90;99.90;;;;;;4937622;28;20367;-69
2021/08/13 09:27:20;;;;;;;17.40;12.98;;;27.30;99.90;;;;;;4937856;29;20506;-69
2021/08/13 09:30:15;;;;;;;17.75;13.32;;;27.60;99.90;;;;;;4937484;28;20454;-69
2021/08/13 09:32:59;;;;;;;15.82;13.18;;;28.00;99.90;;;;;;4919516;28;20137;-69
2021/08/13 09:35:32;;;;;;;20.05;13.55;;;28.20;99.90;;;;;;4939223;28;20070;-69
2021/08/13 09:38:01;;;;;;;20.75;14.40;;;28.40;99.90;;;;;;4948870;28;20047;-70
2021/08/13 09:40:37;;;;;;;15.73;11.95;;;28.30;99.90;;;;;;4957032;28;20458;-68
2021/08/13 09:43:04;;;;;;;16.75;13.18;;;28.30;99.90;;;;;;4920463;28;20051;-69
2021/08/13 09:45:32;;;;;;;15.88;12.07;;;28.50;99.90;;;;;;4955465;28;20050;-69
2021/08/13 09:48:05;;;;;;;17.23;11.85;;;28.40;99.90;;;;;;4953068;28;20380;-69
2021/08/13 09:50:39;;;;;;;17.08;11.10;;;28.40;99.90;;;;;;4935628;28;20059;-69
2021/08/13 09:53:14;;;;;;;15.07;10.77;;;28.30;99.90;;;;;;4945325;28;20039;-69
2021/08/13 09:55:42;;;;;;;15.65;12.38;;;28.50;99.90;;;;;;4935414;29;20521;-69
2021/08/13 09:58:11;;;;;;;16.77;11.88;;;28.80;99.90;;;;;;4952857;28;20494;-69
2021/08/13 10:00:44;;;;;;;13.73;10.15;;;29.00;99.90;;;;;;4921461;28;20142;-69
2021/08/13 10:03:11;;;;;;;13.63;10.35;;;29.30;99.90;;;;;;4947613;28;20098;-69
2021/08/13 10:05:39;;;;;;;13.48;10.15;;;29.40;99.90;;;;;;4961479;28;20053;-69
2021/08/13 10:08:07;;;;;;;13.57;10.18;;;29.40;99.90;;;;;;4921833;28;20455;-69
2021/08/13 10:10:40;;;;;;;11.57;8.77;;;29.30;99.90;;;;;;4951609;28;20043;-70
2021/08/13 10:13:11;;;;;;;10.27;7.30;;;29.00;99.90;;;;;;4934462;28;20130;-70
2021/08/13 10:15:55;;;;;;;10.02;7.82;;;28.90;99.90;;;;;;4936200;28;20130;-70
2021/08/13 10:18:27;;;;;;;10.20;8.27;;;28.70;99.90;;;;;;4950312;28;20047;-69
2021/08/13 10:20:59;;;;;;;10.73;8.07;;;29.20;99.90;;;;;;4940678;28;20098;-68
2021/08/13 10:23:28;;;;;;;10.75;7.50;;;29.80;99.90;;;;;;4934824;29;20499;-68
2021/08/13 10:25:58;;;;;;;9.55;6.75;;;30.10;99.90;;;;;;4936860;29;20047;-68
2021/08/13 10:28:32;;;;;;;9.95;6.63;;;30.50;99.90;;;;;;4933271;29;20047;-68
2021/08/13 10:31:03;;;;;;;9.25;6.50;;;30.90;99.90;;;;;;4936192;29;20051;-68
2021/08/13 10:33:36;;;;;;;11.95;7.72;;;31.10;99.90;;;;;;4934767;28;20470;-68
2021/08/13 10:36:05;;;;;;;9.40;6.95;;;31.10;99.90;;;;;;4936456;29;20437;-68
2021/08/13 10:38:33;;;;;;;12.15;8.50;;;31.60;99.90;;;;;;4934707;28;20050;-68
2021/08/13 10:41:01;;;;;;;15.60;8.77;;;31.90;99.90;;;;;;4940898;28;20063;-68
2021/08/13 10:43:48;;;;;;;16.38;10.20;;;31.60;99.90;;;;;;4951659;28;20522;-68
2021/08/13 10:46:20;;;;;;;12.75;9.45;;;31.20;99.90;;;;;;4936284;29;20174;-68
2021/08/13 10:48:51;;;;;;;11.93;8.55;;;30.70;99.90;;;;;;4934858;28;20039;-68
2021/08/13 10:51:32;;;;;;;12.57;9.27;;;30.30;99.90;;;;;;4936338;29;20047;-68
2021/08/13 10:54:13;;;;;;;16.85;8.88;;;30.40;99.90;;;;;;4933936;29;20193;-68
2021/08/13 10:56:48;;;;;;;15.57;9.85;;;30.50;99.90;;;;;;4942935;29;20098;-69
2021/08/13 10:59:41;;;;;;;15.63;11.30;;;30.50;99.90;;;;;;4930317;29;20047;-69
2021/08/13 11:02:19;;;;;;;16.15;10.32;;;30.60;99.90;;;;;;4935023;28;20043;-69
2021/08/13 11:04:54;;;;;;;14.50;9.18;;;30.50;99.90;;;;;;4952130;28;20032;-69
2021/08/13 11:07:55;;;;;;;13.90;8.90;;;30.40;99.90;;;;;;4928953;28;20042;-69
2021/08/13 11:10:38;;;;;;;14.23;8.23;;;30.60;99.90;;;;;;4939583;28;20054;-69
2021/08/13 11:13:10;;;;;;;12.68;8.65;;;31.10;99.90;;;;;;4944191;28;20077;-69
2021/08/13 11:15:40;;;;;;;9.93;7.57;;;31.40;99.90;;;;;;4934765;29;20522;-69
2021/08/13 11:18:30;;;;;;;14.18;8.30;;;31.40;99.90;;;;;;4934843;28;20498;-68
2021/08/13 11:21:00;;;;;;;10.25;7.80;;;31.60;99.90;;;;;;4936130;29;20039;-68
2021/08/13 11:23:28;;;;;;;10.13;7.88;;;31.80;99.90;;;;;;4951516;28;20047;-68
2021/08/13 11:25:57;;;;;;;13.07;8.32;;;32.30;99.90;;;;;;4943949;28;20043;-68
2021/08/13 11:28:30;;;;;;;11.82;8.32;;;32.70;99.90;;;;;;4955586;28;20047;-68
2021/08/13 11:31:01;;;;;;;10.80;7.72;;;33.00;99.90;;;;;;4934135;29;20043;-68
2021/08/13 11:33:31;;;;;;;10.70;7.65;;;33.00;99.90;;;;;;4948980;28;20387;-68
2021/08/13 11:36:00;;;;;;;13.50;8.75;;;33.30;99.90;;;;;;4916298;28;20051;-68
2021/08/13 11:38:44;;;;;;;10.35;8.48;;;33.20;99.90;;;;;;4948539;28;20090;-68
2021/08/13 11:41:21;;;;;;;14.90;9.15;;;33.00;99.90;;;;;;4938888;28;20047;-68
2021/08/13 11:43:55;;;;;;;10.52;8.30;;;32.80;99.90;;;;;;4948840;28;20039;-68
2021/08/13 11:46:28;;;;;;;12.55;8.80;;;32.60;99.90;;;;;;4934114;29;20067;-68
2021/08/13 11:49:11;;;;;;;12.27;9.43;;;32.70;99.90;;;;;;4934684;28;20089;-68
2021/08/13 11:51:43;;;;;;;13.98;8.75;;;32.80;99.90;;;;;;4933629;29;20043;-67
2021/08/13 11:54:29;;;;;;;15.30;9.50;;;32.50;99.90;;;;;;4929926;28;20098;-68
2021/08/13 11:57:21;;;;;;;12.63;9.43;;;32.10;99.90;;;;;;4933326;28;20130;-68
2021/08/13 11:59:50;;;;;;;13.23;8.37;;;31.90;99.90;;;;;;4951743;28;20113;-68
2021/08/13 12:02:29;;;;;;;12.63;9.07;;;32.10;99.90;;;;;;4932184;29;20314;-68
2021/08/13 12:05:10;;;;;;;13.13;8.70;;;32.60;99.90;;;;;;4933721;28;20098;-68
2021/08/13 12:07:39;;;;;;;13.02;8.50;;;32.60;99.90;;;;;;4942644;28;20039;-68
2021/08/13 12:10:14;;;;;;;13.57;9.18;;;32.90;99.90;;;;;;4950280;28;20146;-68
2021/08/13 12:12:44;;;;;;;10.18;8.05;;;33.20;99.90;;;;;;4949902;28;20051;-68
2021/08/13 12:15:12;;;;;;;13.05;8.35;;;33.50;99.90;;;;;;4932586;29;20058;-68
2021/08/13 12:17:40;;;;;;;13.23;8.35;;;34.00;99.90;;;;;;4946911;28;20569;-68
2021/08/13 12:20:11;;;;;;;17.77;8.80;;;34.30;99.90;;;;;;4933758;29;20430;-68
2021/08/13 12:22:40;;;;;;;13.82;8.52;;;34.40;99.90;;;;;;4934337;29;20039;-67
2021/08/13 12:25:14;;;;;;;11.95;8.77;;;34.70;99.90;;;;;;4934370;29;20042;-68
2021/08/13 12:27:43;;;;;;;10.65;8.48;;;35.30;99.90;;;;;;4940506;28;20070;-68
2021/08/13 12:30:17;;;;;;;9.68;8.30;;;35.00;99.90;;;;;;4952650;28;20586;-69
2021/08/13 12:32:47;;;;;;;11.93;7.88;;;35.90;99.90;;;;;;4932195;29;20110;-68
2021/08/13 12:35:16;;;;;;;12.48;7.97;;;36.30;99.90;;;;;;4935470;29;20051;-68
2021/08/13 12:37:44;;;;;;;14.63;9.23;;;36.30;99.90;;;;;;4933081;28;20078;-68
2021/08/13 12:40:13;;;;;;;13.60;8.55;;;35.80;99.90;;;;;;4933978;28;20035;-67
2021/08/13 12:42:50;;;;;;;10.85;8.60;;;35.80;99.90;;;;;;4934422;29;20045;-67
2021/08/13 12:45:20;;;;;;;11.15;8.32;;;35.70;99.90;;;;;;4933664;29;20048;-68
2021/08/13 12:47:50;;;;;;;9.07;7.25;;;35.50;99.90;;;;;;4920224;29;20048;-68
2021/08/13 12:50:23;;;;;;;9.73;7.65;;;35.80;99.90;;;;;;4948590;28;20413;-68
2021/08/13 12:53:02;;;;;;;12.43;7.60;;;35.70;99.90;;;;;;4949978;28;20422;-68
2021/08/13 12:55:35;;;;;;;11.15;7.90;;;35.80;99.90;;;;;;4953174;28;20051;-68